< < Back
Terminal Aerodrome Forecast


Current Version              Previous Versions:   1  2  3  4  5  6  7  8  9  

Terminal Aerodrome Forecast

194
FTUS42 KCAE 221700
TAFCAE
TAF
KCAE 221729Z 2218/2318 08006KT P6SM SKC
     FM222300 VRB03KT P6SM SCT120
     FM230900 VRB03KT P6SM SCT020 OVC050
     FM231200 06005KT P6SM VCSH SCT008 OVC035
     FM231400 07008KT 4SM -RA BR OVC012
     FM231600 08012KT 3SM RA BR OVC006=

Latest METAR

454
SAUS80 KWBC 230600 RRA
MTRCAE
METAR KCAE 230556Z 08003KT 7SM RA OVC120 10/06 A3026 RMK AO2 RAB48
SLP246 P0000 60000 T01000056 10128 20072 58017


USA.gov is the U.S. government's official web portal to all federal, state and local government web resources and services.